createdAt,value
2019-03-28T00:02:28.273Z,99725.80
2019-03-28T00:04:56.742Z,99720.30
2019-03-28T00:07:25.279Z,99726.34
2019-03-28T00:09:53.786Z,99721.69
2019-03-28T00:12:22.269Z,99723.08
2019-03-28T00:14:50.766Z,99725.00
2019-03-28T00:17:19.235Z,99720.04
2019-03-28T00:19:47.714Z,99720.60
2019-03-28T00:22:17.853Z,99721.16
2019-03-28T00:24:56.984Z,99706.25
2019-03-28T00:27:25.448Z,99710.97
2019-03-28T00:29:54.338Z,99712.34
2019-03-28T00:32:23.016Z,99718.64
2019-03-28T00:34:51.485Z,99710.92
2019-03-28T00:37:19.979Z,99708.45
2019-03-28T00:39:48.450Z,99707.88
2019-03-28T00:42:17.064Z,99715.25
2019-03-28T00:44:45.537Z,99711.63
2019-03-28T00:47:14.011Z,99712.67
2019-03-28T00:49:43.194Z,99706.34
2019-03-28T00:52:11.765Z,99707.48
2019-03-28T00:54:40.228Z,99704.21
2019-03-28T00:57:08.709Z,99705.59
2019-03-28T00:59:37.177Z,99707.23
2019-03-28T01:02:05.643Z,99705.61
2019-03-28T01:04:34.130Z,99706.20
2019-03-28T01:07:02.627Z,99703.18
2019-03-28T01:09:31.385Z,99705.52
2019-03-28T01:12:00.074Z,99712.17
2019-03-28T01:14:28.554Z,99703.48
2019-03-28T01:16:57.029Z,99707.06
2019-03-28T01:19:25.528Z,99705.95
2019-03-28T01:21:53.995Z,99708.59
2019-03-28T01:24:22.494Z,99704.42
2019-03-28T01:26:57.140Z,99703.63
2019-03-28T01:29:21.171Z,99699.97
2019-03-28T01:31:49.670Z,99698.74
2019-03-28T01:34:18.155Z,99694.25
2019-03-28T01:36:46.650Z,99695.14
2019-03-28T01:39:15.110Z,99688.91
2019-03-28T01:41:43.581Z,99694.94
2019-03-28T01:44:12.054Z,99692.21
2019-03-28T01:46:40.721Z,99693.30
2019-03-28T01:49:09.185Z,99686.62
2019-03-28T01:51:37.664Z,99697.05
2019-03-28T01:54:06.144Z,99696.73
2019-03-28T01:56:34.696Z,99706.25
2019-03-28T01:59:03.238Z,99703.34
2019-03-28T02:01:31.707Z,99696.30
2019-03-28T02:04:00.202Z,99694.68
2019-03-28T02:06:28.666Z,99694.41
2019-03-28T02:08:57.132Z,99691.00
2019-03-28T02:11:25.627Z,99688.30
2019-03-28T02:13:54.127Z,99692.33
2019-03-28T02:16:22.635Z,99696.33
2019-03-28T02:18:51.087Z,99693.03
2019-03-28T02:21:19.590Z,99692.55
2019-03-28T02:23:48.085Z,99695.48
2019-03-28T02:26:16.588Z,99696.55
2019-03-28T02:28:45.051Z,99696.79
2019-03-28T02:31:13.556Z,99697.13
2019-03-28T02:33:42.020Z,99689.25
2019-03-28T02:36:10.497Z,99693.50
2019-03-28T02:38:38.990Z,99697.03
2019-03-28T02:41:08.667Z,99690.14
2019-03-28T02:43:37.429Z,99695.02
2019-03-28T02:46:05.934Z,99695.05
2019-03-28T02:48:34.395Z,99691.84
2019-03-28T02:51:03.749Z,99697.22
2019-03-28T02:53:32.704Z,99700.27
2019-03-28T02:56:01.206Z,99704.32
2019-03-28T02:58:29.668Z,99700.12
2019-03-28T03:00:58.165Z,99689.95
2019-03-28T03:03:26.660Z,99691.11
2019-03-28T03:05:55.136Z,99688.95
2019-03-28T03:08:23.625Z,99692.55
2019-03-28T03:10:52.122Z,99685.86
2019-03-28T03:13:20.603Z,99685.45
2019-03-28T03:15:49.068Z,99687.81
2019-03-28T03:18:21.233Z,99683.47
2019-03-28T03:20:47.808Z,99680.87
2019-03-28T03:23:16.324Z,99683.64
2019-03-28T03:25:44.791Z,99688.77
2019-03-28T03:28:13.268Z,99677.12
2019-03-28T03:30:41.753Z,99686.92
2019-03-28T03:33:10.212Z,99681.58
2019-03-28T03:35:38.689Z,99682.67
2019-03-28T03:38:07.166Z,99681.15
2019-03-28T03:40:35.662Z,99674.62
2019-03-28T03:43:04.197Z,99675.25
2019-03-28T03:45:32.681Z,99676.77
2019-03-28T03:48:01.146Z,99677.53
2019-03-28T03:50:30.281Z,99673.46
2019-03-28T03:52:58.930Z,99682.05
2019-03-28T03:55:27.404Z,99668.33
2019-03-28T03:58:13.291Z,99675.20
2019-03-28T04:00:32.437Z,99683.44
2019-03-28T04:03:02.984Z,99672.64
2019-03-28T04:05:32.102Z,99674.78
2019-03-28T04:08:00.760Z,99676.27
2019-03-28T04:10:29.302Z,99677.59
2019-03-28T04:12:57.960Z,99678.34
2019-03-28T04:15:26.489Z,99677.02
2019-03-28T04:17:55.115Z,99671.53
2019-03-28T04:20:24.870Z,99673.35
2019-03-28T04:22:53.809Z,99681.59
2019-03-28T04:25:22.359Z,99678.83
2019-03-28T04:27:50.918Z,99671.04
2019-03-28T04:30:19.563Z,99667.91
2019-03-28T04:32:48.085Z,99668.14
2019-03-28T04:35:16.606Z,99675.91
2019-03-28T04:37:45.171Z,99669.89
2019-03-28T04:40:14.032Z,99678.85
2019-03-28T04:42:45.557Z,99676.52
2019-03-28T04:45:13.003Z,99686.69
2019-03-28T04:47:41.604Z,99678.34
2019-03-28T04:50:10.580Z,99682.56
2019-03-28T04:52:39.159Z,99670.59
2019-03-28T04:55:08.177Z,99676.98
2019-03-28T04:57:36.696Z,99678.41
2019-03-28T05:00:09.609Z,99677.07
2019-03-28T05:02:38.277Z,99676.52
2019-03-28T05:05:07.774Z,99678.18
2019-03-28T05:07:36.295Z,99679.83
2019-03-28T05:10:08.099Z,99678.16
2019-03-28T05:12:36.725Z,99679.26
2019-03-28T05:15:10.324Z,99681.77
2019-03-28T05:17:39.006Z,99675.97
2019-03-28T05:20:08.116Z,99682.29
2019-03-28T05:22:36.764Z,99685.01
2019-03-28T05:25:07.256Z,99690.80
2019-03-28T05:27:35.899Z,99682.32
2019-03-28T05:30:08.834Z,99680.39
2019-03-28T05:32:37.350Z,99683.12
2019-03-28T05:35:07.922Z,99683.13
2019-03-28T05:37:36.713Z,99683.13
2019-03-28T05:40:07.413Z,99686.97
2019-03-28T05:42:35.931Z,99681.46
2019-03-28T05:45:06.731Z,99685.61
2019-03-28T05:47:35.491Z,99686.16
2019-03-28T05:50:05.451Z,99682.30
2019-03-28T05:52:33.947Z,99683.14
2019-03-28T05:55:05.247Z,99671.30
2019-03-28T05:57:32.642Z,99677.20
2019-03-28T06:00:01.126Z,99671.23
2019-03-28T06:02:29.616Z,99685.58
2019-03-28T06:04:58.081Z,99686.70
2019-03-28T06:07:26.645Z,99680.36
2019-03-28T06:09:55.125Z,99686.44
2019-03-28T06:12:23.679Z,99682.29
2019-03-28T06:14:52.157Z,99693.30
2019-03-28T06:17:20.659Z,99688.36
2019-03-28T06:19:50.102Z,99686.13
2019-03-28T06:22:18.671Z,99693.21
2019-03-28T06:24:47.144Z,99690.70
2019-03-28T06:27:15.624Z,99691.02
2019-03-28T06:29:44.090Z,99696.06
2019-03-28T06:32:12.576Z,99703.78
2019-03-28T06:34:41.051Z,99704.56
2019-03-28T06:37:09.537Z,99700.97
2019-03-28T06:39:38.057Z,99700.75
2019-03-28T06:42:06.553Z,99705.44
2019-03-28T06:44:35.037Z,99700.22
2019-03-28T06:47:03.518Z,99697.16
2019-03-28T06:49:31.997Z,99701.27
2019-03-28T06:52:00.465Z,99707.61
2019-03-28T06:54:28.974Z,99701.77
2019-03-28T06:56:57.444Z,99705.27
2019-03-28T06:59:36.778Z,99699.58
2019-03-28T07:01:56.213Z,99704.88
2019-03-28T07:04:25.997Z,99711.20
2019-03-28T07:06:54.488Z,99711.42
2019-03-28T07:09:22.982Z,99712.02
2019-03-28T07:11:51.493Z,99711.20
2019-03-28T07:14:19.978Z,99710.91
2019-03-28T07:16:48.463Z,99706.00
2019-03-28T07:19:17.055Z,99706.81
2019-03-28T07:21:45.601Z,99706.80
2019-03-28T07:24:14.116Z,99705.41
2019-03-28T07:26:42.607Z,99705.69
2019-03-28T07:29:11.173Z,99706.82
2019-03-28T07:31:40.512Z,99706.41
2019-03-28T07:34:09.160Z,99711.27
2019-03-28T07:36:37.709Z,99705.61
2019-03-28T07:39:07.438Z,99699.62
2019-03-28T07:41:35.918Z,99709.23
2019-03-28T07:44:04.693Z,99706.59
2019-03-28T07:46:33.200Z,99711.16
2019-03-28T07:49:01.755Z,99716.08
2019-03-28T07:51:30.253Z,99713.70
2019-03-28T07:53:58.754Z,99710.80
2019-03-28T07:56:27.249Z,99716.31
2019-03-28T07:58:55.767Z,99721.84
2019-03-28T08:01:24.315Z,99721.98
2019-03-28T08:03:52.805Z,99721.19
2019-03-28T08:06:21.319Z,99725.11
2019-03-28T08:08:49.807Z,99732.11
2019-03-28T08:11:18.410Z,99725.61
2019-03-28T08:13:46.953Z,99736.88
2019-03-28T08:16:15.454Z,99740.41
2019-03-28T08:18:43.953Z,99730.07
2019-03-28T08:21:12.434Z,99735.70
2019-03-28T08:23:40.956Z,99733.52
2019-03-28T08:26:09.780Z,99739.48
2019-03-28T08:28:38.415Z,99743.29
2019-03-28T08:31:06.915Z,99740.55
2019-03-28T08:33:37.801Z,99737.94
2019-03-28T08:36:06.539Z,99733.84
2019-03-28T08:38:38.073Z,99745.47
2019-03-28T08:41:07.255Z,99743.45
2019-03-28T08:43:36.169Z,99739.59
2019-03-28T08:46:04.816Z,99744.91
2019-03-28T08:48:33.396Z,99747.42
2019-03-28T08:51:01.961Z,99752.25
2019-03-28T08:53:30.447Z,99744.25
2019-03-28T08:55:58.942Z,99747.39
2019-03-28T08:58:27.463Z,99739.59
2019-03-28T09:00:55.942Z,99745.84
2019-03-28T09:03:24.510Z,99751.70
2019-03-28T09:05:53.036Z,99755.16
2019-03-28T09:08:21.526Z,99755.23
2019-03-28T09:10:50.029Z,99760.55
2019-03-28T09:13:18.604Z,99764.06
2019-03-28T09:15:47.128Z,99765.56
2019-03-28T09:18:15.614Z,99768.53
2019-03-28T09:20:44.145Z,99766.44
2019-03-28T09:23:12.626Z,99765.30
2019-03-28T09:25:41.146Z,99764.13
2019-03-28T09:28:09.656Z,99764.80
2019-03-28T09:30:48.143Z,99758.68
2019-03-28T09:33:10.499Z,99761.68
2019-03-28T09:35:39.118Z,99754.01
2019-03-28T09:38:07.836Z,99757.45
2019-03-28T09:40:36.324Z,99754.11
2019-03-28T09:43:05.346Z,99762.34
2019-03-28T09:45:36.618Z,99760.08
2019-03-28T09:48:05.269Z,99763.11
2019-03-28T09:50:33.813Z,99770.78
2019-03-28T09:53:02.401Z,99760.44
2019-03-28T09:55:30.927Z,99765.28
2019-03-28T09:57:59.422Z,99769.75
2019-03-28T10:00:27.904Z,99773.59
2019-03-28T10:02:56.404Z,99766.44
2019-03-28T10:05:24.891Z,99772.83
2019-03-28T10:07:53.395Z,99767.03
2019-03-28T10:10:21.945Z,99763.19
2019-03-28T10:12:50.461Z,99758.95
2019-03-28T10:15:19.112Z,99751.83
2019-03-28T10:17:47.600Z,99750.27
2019-03-28T10:20:16.166Z,99744.92
2019-03-28T10:22:44.658Z,99734.34
2019-03-28T10:25:14.581Z,99735.16
2019-03-28T10:27:43.173Z,99736.00
2019-03-28T10:30:12.607Z,99736.61
2019-03-28T10:32:41.258Z,99733.09
2019-03-28T10:35:11.337Z,99732.50
2019-03-28T10:37:39.820Z,99732.09
2019-03-28T10:40:08.574Z,99739.86
2019-03-28T10:42:37.121Z,99738.88
2019-03-28T10:45:07.784Z,99727.61
2019-03-28T10:47:36.272Z,99732.29
2019-03-28T10:50:06.351Z,99729.41
2019-03-28T10:52:34.836Z,99727.17
2019-03-28T10:55:03.518Z,99729.06
2019-03-28T10:57:32.429Z,99729.77
2019-03-28T11:00:00.979Z,99731.09
2019-03-28T11:02:29.491Z,99737.09
2019-03-28T11:04:58.003Z,99735.38
2019-03-28T11:07:26.489Z,99730.55
2019-03-28T11:09:56.270Z,99740.08
2019-03-28T11:12:24.715Z,99742.48
2019-03-28T11:14:53.225Z,99750.00
2019-03-28T11:17:21.892Z,99740.44
2019-03-28T11:19:50.575Z,99742.42
2019-03-28T11:22:19.059Z,99745.98
2019-03-28T11:24:47.596Z,99740.43
2019-03-28T11:27:16.080Z,99748.48
2019-03-28T11:29:44.600Z,99742.84
2019-03-28T11:32:13.191Z,99739.42
2019-03-28T11:34:41.707Z,99738.61
2019-03-28T11:37:24.972Z,99745.55
2019-03-28T11:39:40.436Z,99742.86
2019-03-28T11:42:09.055Z,99740.34
2019-03-28T11:44:37.550Z,99743.03
2019-03-28T11:47:06.039Z,99744.19
2019-03-28T11:49:34.564Z,99732.61
2019-03-28T11:52:03.049Z,99730.09
2019-03-28T11:54:31.534Z,99737.74
2019-03-28T11:57:00.116Z,99735.80
2019-03-28T11:59:28.605Z,99736.19
2019-03-28T12:02:02.054Z,99736.72
2019-03-28T12:04:27.397Z,99741.49
2019-03-28T12:06:55.913Z,99749.66
2019-03-28T12:09:25.969Z,99750.56
2019-03-28T12:11:54.479Z,99742.13
2019-03-28T12:14:23.032Z,99742.16
2019-03-28T12:16:51.532Z,99738.61
2019-03-28T12:19:20.018Z,99739.25
2019-03-28T12:21:48.497Z,99736.95
2019-03-28T12:24:17.012Z,99738.56
2019-03-28T12:26:45.499Z,99744.34
2019-03-28T12:29:14.041Z,99738.39
2019-03-28T12:31:42.558Z,99740.84
2019-03-28T12:34:11.039Z,99742.53
2019-03-28T12:36:39.528Z,99731.38
2019-03-28T12:39:08.291Z,99734.75
2019-03-28T12:41:36.863Z,99740.93
2019-03-28T12:44:05.346Z,99739.03
2019-03-28T12:46:33.868Z,99733.50
2019-03-28T12:49:02.622Z,99725.50
2019-03-28T12:51:31.118Z,99730.30
2019-03-28T12:53:59.631Z,99722.42
2019-03-28T12:56:28.114Z,99714.86
2019-03-28T12:58:56.617Z,99715.45
2019-03-28T13:01:25.097Z,99720.34
2019-03-28T13:03:53.609Z,99719.30
2019-03-28T13:06:24.150Z,99711.14
2019-03-28T13:08:52.667Z,99708.20
2019-03-28T13:11:21.190Z,99711.20
2019-03-28T13:13:49.697Z,99715.69
2019-03-28T13:16:18.184Z,99718.40
2019-03-28T13:18:46.697Z,99725.16
2019-03-28T13:21:15.183Z,99727.66
2019-03-28T13:23:43.685Z,99718.32
2019-03-28T13:26:12.168Z,99723.67
2019-03-28T13:28:40.684Z,99717.20
2019-03-28T13:31:09.179Z,99710.31
2019-03-28T13:33:37.698Z,99712.83
2019-03-28T13:36:06.269Z,99705.48
2019-03-28T13:38:34.750Z,99701.41
2019-03-28T13:41:03.305Z,99711.56
2019-03-28T13:43:31.777Z,99709.16
2019-03-28T13:46:00.925Z,99709.91
2019-03-28T13:48:29.451Z,99710.89
2019-03-28T13:50:57.944Z,99701.21
2019-03-28T13:53:38.890Z,99706.99
2019-03-28T13:55:57.700Z,99700.81
2019-03-28T13:58:26.191Z,99701.89
2019-03-28T14:00:56.217Z,99704.25
2019-03-28T14:03:24.986Z,99712.19
2019-03-28T14:05:53.481Z,99713.46
2019-03-28T14:08:21.958Z,99727.66
2019-03-28T14:10:50.472Z,99736.61
2019-03-28T14:13:18.948Z,99744.84
2019-03-28T14:15:47.457Z,99744.21
2019-03-28T14:18:15.958Z,99752.06
2019-03-28T14:20:44.456Z,99752.43
2019-03-28T14:23:12.949Z,99752.46
2019-03-28T14:25:41.419Z,99746.59
2019-03-28T14:28:09.913Z,99746.94
2019-03-28T14:30:39.628Z,99746.88
2019-03-28T14:33:11.550Z,99743.35
2019-03-28T14:35:38.683Z,99758.52
2019-03-28T14:38:07.214Z,99755.44
2019-03-28T14:40:35.675Z,99755.26
2019-03-28T14:43:06.711Z,99753.48
2019-03-28T14:45:35.813Z,99754.72
2019-03-28T14:48:06.844Z,99753.03
2019-03-28T14:50:36.695Z,99751.25
2019-03-28T14:53:05.817Z,99756.50
2019-03-28T14:55:35.343Z,99753.84
2019-03-28T14:58:06.713Z,99756.25
2019-03-28T15:00:47.308Z,99760.25
2019-03-28T15:03:25.545Z,99759.55
2019-03-28T15:05:46.833Z,99754.96
2019-03-28T15:08:15.397Z,99764.11
2019-03-28T15:10:43.992Z,99756.25
2019-03-28T15:13:12.495Z,99764.37
2019-03-28T15:15:40.983Z,99762.59
2019-03-28T15:18:09.521Z,99756.87
2019-03-28T15:20:38.034Z,99750.73
2019-03-28T15:23:06.611Z,99755.05
2019-03-28T15:25:35.094Z,99752.42
2019-03-28T15:28:03.617Z,99755.34
2019-03-28T15:30:32.112Z,99750.73
2019-03-28T15:33:00.625Z,99757.22
2019-03-28T15:35:29.186Z,99749.19
2019-03-28T15:37:57.699Z,99753.98
2019-03-28T15:40:26.253Z,99757.60
2019-03-28T15:42:54.768Z,99748.03
2019-03-28T15:45:23.269Z,99743.38
2019-03-28T15:47:52.261Z,99750.31
2019-03-28T15:50:20.831Z,99759.34
2019-03-28T15:52:49.319Z,99763.70
2019-03-28T15:55:17.821Z,99761.49
2019-03-28T15:57:46.339Z,99754.03
2019-03-28T16:00:15.467Z,99752.64
2019-03-28T16:02:44.058Z,99757.51
2019-03-28T16:05:12.652Z,99767.41
2019-03-28T16:07:41.166Z,99786.89
2019-03-28T16:10:10.490Z,99787.14
2019-03-28T16:12:39.078Z,99796.11
2019-03-28T16:15:08.304Z,99791.44
2019-03-28T16:17:36.814Z,99794.52
2019-03-28T16:20:06.455Z,99790.23
2019-03-28T16:22:34.949Z,99793.45
2019-03-28T16:25:04.140Z,99799.06
2019-03-28T16:27:32.634Z,99797.98
2019-03-28T16:30:01.145Z,99811.20
2019-03-28T16:32:29.669Z,99814.72
2019-03-28T16:34:58.326Z,99813.16
2019-03-28T16:37:27.693Z,99813.38
2019-03-28T16:39:56.451Z,99822.48
2019-03-28T16:42:26.486Z,99812.27
2019-03-28T16:44:54.999Z,99815.61
2019-03-28T16:47:24.754Z,99814.98
2019-03-28T16:49:53.278Z,99818.48
2019-03-28T16:52:21.774Z,99823.78
2019-03-28T16:54:50.293Z,99825.84
2019-03-28T16:57:19.216Z,99824.58
2019-03-28T16:59:48.277Z,99815.25
2019-03-28T17:02:16.802Z,99829.56
2019-03-28T17:04:45.288Z,99835.25
2019-03-28T17:07:14.879Z,99830.80
2019-03-28T17:09:43.442Z,99833.39
2019-03-28T17:12:11.955Z,99831.39
2019-03-28T17:14:40.478Z,99833.02
2019-03-28T17:17:09.032Z,99830.40
2019-03-28T17:19:37.510Z,99840.59
2019-03-28T17:22:09.332Z,99844.35
2019-03-28T17:24:36.229Z,99845.16
2019-03-28T17:27:04.797Z,99850.56
2019-03-28T17:29:33.316Z,99844.44
2019-03-28T17:32:01.808Z,99843.98
2019-03-28T17:34:35.236Z,99843.67
2019-03-28T17:37:00.629Z,99841.13
2019-03-28T17:39:29.156Z,99845.33
2019-03-28T17:41:57.919Z,99844.58
2019-03-28T17:44:26.556Z,99845.14
2019-03-28T17:46:55.052Z,99853.14
2019-03-28T17:49:23.602Z,99855.56
2019-03-28T17:51:52.095Z,99857.30
2019-03-28T17:54:20.652Z,99851.98
2019-03-28T17:56:49.247Z,99861.39
2019-03-28T17:59:17.778Z,99861.38
2019-03-28T18:01:46.643Z,99864.42
2019-03-28T18:04:22.823Z,99867.67
2019-03-28T18:06:45.490Z,99872.37
2019-03-28T18:09:13.949Z,99875.00
2019-03-28T18:11:42.751Z,99871.45
2019-03-28T18:14:11.240Z,99875.39
2019-03-28T18:16:39.738Z,99874.84
2019-03-28T18:19:08.251Z,99872.94
2019-03-28T18:21:36.823Z,99883.95
2019-03-28T18:24:05.329Z,99887.51
2019-03-28T18:26:33.920Z,99891.64
2019-03-28T18:29:03.442Z,99888.20
2019-03-28T18:31:32.030Z,99897.73
2019-03-28T18:34:00.550Z,99895.37
2019-03-28T18:36:29.105Z,99900.75
2019-03-28T18:38:57.645Z,99896.22
2019-03-28T18:41:26.146Z,99900.97
2019-03-28T18:43:54.673Z,99898.80
2019-03-28T18:46:23.165Z,99909.34
2019-03-28T18:48:51.683Z,99916.10
2019-03-28T18:51:20.237Z,99918.63
2019-03-28T18:53:48.771Z,99918.63
2019-03-28T18:56:17.251Z,99914.23
2019-03-28T18:58:45.770Z,99922.28
2019-03-28T19:01:14.264Z,99924.22
2019-03-28T19:03:42.814Z,99922.84
2019-03-28T19:06:14.687Z,99922.88
2019-03-28T19:08:41.601Z,99924.02
2019-03-28T19:11:10.211Z,99927.06
2019-03-28T19:13:39.654Z,99928.98
2019-03-28T19:16:08.284Z,99933.97
2019-03-28T19:18:36.791Z,99935.09
2019-03-28T19:21:05.380Z,99936.20
2019-03-28T19:23:33.876Z,99935.66
2019-03-28T19:26:02.485Z,99929.57
2019-03-28T19:28:30.980Z,99930.16
2019-03-28T19:30:59.491Z,99933.73
2019-03-28T19:33:29.003Z,99940.36
2019-03-28T19:36:01.336Z,99933.47
2019-03-28T19:38:29.493Z,99943.94
2019-03-28T19:40:58.608Z,99938.97
2019-03-28T19:43:27.612Z,99942.58
2019-03-28T19:45:56.110Z,99937.88
2019-03-28T19:48:24.629Z,99937.90
2019-03-28T19:50:53.117Z,99944.52
2019-03-28T19:53:21.616Z,99946.70
2019-03-28T19:55:50.106Z,99955.52
2019-03-28T19:58:18.627Z,99958.84
2019-03-28T20:00:47.416Z,99957.45
2019-03-28T20:03:15.951Z,99959.64
2019-03-28T20:05:48.086Z,99961.58
2019-03-28T20:08:16.426Z,99965.44
2019-03-28T20:10:46.519Z,99967.86
2019-03-28T20:13:15.042Z,99958.47
2019-03-28T20:15:43.534Z,99973.34
2019-03-28T20:18:12.125Z,99966.16
2019-03-28T20:20:40.696Z,99965.33
2019-03-28T20:23:09.254Z,99974.97
2019-03-28T20:25:37.763Z,99970.30
2019-03-28T20:28:06.787Z,99976.90
2019-03-28T20:30:35.442Z,99974.66
2019-03-28T20:33:04.460Z,99976.84
2019-03-28T20:35:33.016Z,99977.61
2019-03-28T20:38:01.517Z,99985.89
2019-03-28T20:40:30.007Z,99978.45
2019-03-28T20:42:58.617Z,99984.25
2019-03-28T20:45:27.114Z,99986.68
2019-03-28T20:47:55.614Z,99981.40
2019-03-28T20:50:24.573Z,99986.83
2019-03-28T20:52:53.057Z,99983.23
2019-03-28T20:55:21.537Z,99987.69
2019-03-28T20:57:50.152Z,99988.23
2019-03-28T21:00:40.062Z,99989.02
2019-03-28T21:03:08.817Z,99993.42
2019-03-28T21:05:37.441Z,99997.17
2019-03-28T21:08:06.186Z,99996.34
2019-03-28T21:10:34.680Z,99990.91
2019-03-28T21:13:03.203Z,99992.58
2019-03-28T21:15:31.722Z,99992.55
2019-03-28T21:18:00.973Z,99987.63
2019-03-28T21:20:29.598Z,99996.95
2019-03-28T21:22:58.087Z,100002.14
2019-03-28T21:25:29.470Z,100003.23
2019-03-28T21:27:56.839Z,99999.36
2019-03-28T21:30:27.072Z,99999.61
2019-03-28T21:32:57.665Z,100005.54
2019-03-28T21:35:25.881Z,100012.45
2019-03-28T21:37:54.502Z,100008.88
2019-03-28T21:40:23.008Z,100008.63
2019-03-28T21:42:51.562Z,100008.31
2019-03-28T21:45:20.047Z,100010.33
2019-03-28T21:47:48.585Z,100010.30
2019-03-28T21:50:17.079Z,100007.55
2019-03-28T21:52:45.572Z,100009.40
2019-03-28T21:55:14.226Z,100008.84
2019-03-28T21:57:42.840Z,100011.30
2019-03-28T22:00:12.635Z,100015.41
2019-03-28T22:02:41.139Z,100017.83
2019-03-28T22:05:09.975Z,100025.73
2019-03-28T22:07:38.496Z,100025.47
2019-03-28T22:10:08.923Z,100025.41
2019-03-28T22:12:37.622Z,100026.52
2019-03-28T22:15:09.428Z,100028.65
2019-03-28T22:17:37.218Z,100030.58
2019-03-28T22:20:07.643Z,100029.73
2019-03-28T22:22:36.150Z,100024.30
2019-03-28T22:25:06.723Z,100021.81
2019-03-28T22:27:35.211Z,100022.56
2019-03-28T22:30:04.108Z,100026.69
2019-03-28T22:32:32.602Z,100027.27
2019-03-28T22:35:01.119Z,100025.57
2019-03-28T22:37:31.691Z,100025.21
2019-03-28T22:40:00.487Z,100023.76
2019-03-28T22:42:28.960Z,100023.39
2019-03-28T22:44:57.493Z,100021.60
2019-03-28T22:47:26.036Z,100023.57
2019-03-28T22:49:54.525Z,100017.45
2019-03-28T22:52:23.083Z,100025.70
2019-03-28T22:54:51.522Z,100017.08
2019-03-28T22:57:20.057Z,100020.34
2019-03-28T22:59:48.563Z,100028.33
2019-03-28T23:02:17.056Z,100022.31
2019-03-28T23:04:45.626Z,100019.53
2019-03-28T23:07:14.587Z,100024.95
2019-03-28T23:09:43.339Z,100024.61
2019-03-28T23:12:11.844Z,100022.95
2019-03-28T23:14:40.335Z,100018.82
2019-03-28T23:17:08.946Z,100024.31
2019-03-28T23:19:37.436Z,100027.66
2019-03-28T23:22:05.957Z,100031.19
2019-03-28T23:24:34.465Z,100035.83
2019-03-28T23:27:02.984Z,100033.89
2019-03-28T23:29:31.490Z,100039.30
2019-03-28T23:31:59.993Z,100042.52
2019-03-28T23:34:28.486Z,100045.06
2019-03-28T23:36:56.990Z,100048.07
2019-03-28T23:39:25.531Z,100048.33
2019-03-28T23:41:53.984Z,100051.23
2019-03-28T23:44:22.503Z,100048.11
2019-03-28T23:46:51.002Z,100046.65
2019-03-28T23:49:19.577Z,100044.37
2019-03-28T23:51:48.246Z,100035.88
2019-03-28T23:54:16.744Z,100035.31
2019-03-28T23:56:45.241Z,100029.43
2019-03-28T23:59:13.749Z,100030.33
